This is the latest recevied weather packets stored in our database for station/object KB4RFE. If no packets are shown the sender has not sent any weather packets the latest 10 day(s).
| Time | Temp. | Humidity | Pressure | Rain* | Wind** | Luminosity | Snow |
|---|---|---|---|---|---|---|---|
| 1788026643 | 29.44° C | 80% | 1023.5 hPa | 0 mm | - | 424 W/m² | - |
| 1788026338 | 28.89° C | 81% | 1023.6 hPa | 0 mm | - | 669 W/m² | - |
| 1788026034 | 28.89° C | 79% | 1023.5 hPa | 0 mm | - | 324 W/m² | - |
| 1788025732 | 28.89° C | 80% | 1023.5 hPa | 0 mm | - | 359 W/m² | - |
| 1788025432 | 28.89° C | 81% | 1023.5 hPa | 0 mm | - | 400 W/m² | - |
| 1788025128 | 28.89° C | 81% | 1023.6 hPa | 0 mm | - | 497 W/m² | - |
| 1788024827 | 28.89° C | 82% | 1023.7 hPa | 0 mm | - | 904 W/m² | - |
| 1788024523 | 28.89° C | 80% | 1023.7 hPa | 0 mm | - | 463 W/m² | - |
| 1788024223 | 28.89° C | 84% | 1023.9 hPa | 0 mm | - | 821 W/m² | - |
| 1788023919 | 28.33° C | 84% | 1023.8 hPa | 0 mm | - | 510 W/m² | - |
| 1788023614 | 27.78° C | 84% | 1023.9 hPa | 0 mm | - | 439 W/m² | - |
| 1788023310 | 28.33° C | 84% | 1024 hPa | 0 mm | - | 314 W/m² | - |
| 1788023004 | 28.33° C | 83% | 1023.8 hPa | 0 mm | - | 499 W/m² | - |
| 1788022702 | 27.78° C | 86% | 1023.9 hPa | 0 mm | - | 607 W/m² | - |
| 1788022400 | 27.78° C | 84% | 1024 hPa | 0 mm | - | 536 W/m² | - |
| 1788022100 | 27.22° C | 87% | 1024 hPa | 0 mm | - | 553 W/m² | - |
| 1788021800 | 27.22° C | 84% | 1024.2 hPa | 0 mm | - | 470 W/m² | - |
| 1788021493 | 27.22° C | 85% | 1024.3 hPa | 0 mm | - | 400 W/m² | - |
| 1788021187 | 26.67° C | 88% | 1024.2 hPa | 0.51 mm | - | 377 W/m² | - |
| 1788020883 | 26.67° C | 89% | 1024.3 hPa | 0 mm | - | 186 W/m² | - |
| 1788020577 | 26.67° C | 89% | 1024.2 hPa | 0.51 mm | - | 309 W/m² | - |
| 1788020274 | 26.67° C | 90% | 1024.3 hPa | 0.51 mm | - | 289 W/m² | - |
| 1788019981 | 26.67° C | 90% | 1024.3 hPa | 0.51 mm | - | 263 W/m² | - |
| 1788019669 | 26.11° C | 90% | 1024.4 hPa | 1.27 mm | - | 274 W/m² | - |
| 1788019369 | 26.11° C | 90% | 1024.4 hPa | 1.27 mm | - | 237 W/m² | - |
* Rain latest hour (hover to see other rain measurements)
** Current wind speed in m/s (hover to see current wind gust speed)